Dafter, Michigan
Current Conditions -  °F | °C
As of 11:35 AM on Friday 21 Nov 2014 (Local Time) from KCIU Reporting Station
Clear Clear  
Wind Chill: 13°   Ceiling: Unl
Heat Index: 21°   Visibility: 10mi
Dew Point: 16°   Wind: 7mph
Humidity: 80%   Direction: 230°SW
Pressure: 30.28"   Gusts: NA
Location:  46.36°N, 84.43°W
Report Text: KCIU 211635Z AUTO 23006KT 10SM CLR M06/M09 A3028 RMK AO1
Loading
Personal Weather Stations






























Interactive Weather Map New forecast layout! Learn more

10-Day Weather Forecast

Advertisements
Track Severe Weather on mobile